Time;durP1;ratioP1;P1;durP2;ratioP2;P2;SDS_P1;SDS_P2;PMS_P1;PMS_P2;Temp;Humidity;BMP_temperature;BMP_pressure;BME280_temperature;BME280_humidity;BME280_pressure;Samples;Min_cycle;Max_cycle;Signal;HPM_P1;HPM_P2
2023/06/23 00:00:12;;;;;;;8.82;6.85;;;;;;;16.89;94.45;101586.03;3577743;40;20051;-64
2023/06/23 00:02:42;;;;;;;9.30;7.55;;;;;;;16.92;95.19;101596.66;3576100;40;20417;-64
2023/06/23 00:05:09;;;;;;;8.98;7.95;;;;;;;16.91;94.78;101609.38;3572834;40;20408;-64
2023/06/23 00:07:36;;;;;;;10.45;8.00;;;;;;;16.93;95.22;101611.94;3577772;40;20048;-64
2023/06/23 00:10:06;;;;;;;10.73;8.02;;;;;;;16.69;95.36;101572.09;3574125;40;20048;-64
2023/06/23 00:12:41;;;;;;;9.20;8.30;;;;;;;16.60;95.74;101567.34;3576553;39;20282;-64
2023/06/23 00:15:13;;;;;;;9.52;8.05;;;;;;;16.01;95.51;101467.72;3575296;40;20045;-64
2023/06/23 00:17:45;;;;;;;9.80;8.80;;;;;;;16.87;95.98;101623.28;3575055;40;20064;-64
2023/06/23 00:20:13;;;;;;;13.80;8.20;;;;;;;16.79;96.54;101623.88;3578391;40;20277;-64
2023/06/23 00:22:40;;;;;;;10.57;9.38;;;;;;;16.75;96.36;101619.66;3579365;39;20060;-64
2023/06/23 00:25:11;;;;;;;12.18;9.35;;;;;;;16.82;96.27;101637.22;3576751;40;20133;-63
2023/06/23 00:27:44;;;;;;;11.15;9.40;;;;;;;16.61;95.99;101598.06;3580719;40;20054;-64
2023/06/23 00:30:11;;;;;;;11.90;10.18;;;;;;;16.79;95.99;101637.44;3575781;40;20048;-64
2023/06/23 00:32:42;;;;;;;11.95;9.82;;;;;;;16.78;97.03;101638.44;3573470;40;20063;-63
2023/06/23 00:35:08;;;;;;;13.25;10.20;;;;;;;16.74;96.98;101644.16;3575036;40;20059;-64
2023/06/23 00:37:37;;;;;;;13.32;10.18;;;;;;;16.75;97.20;101645.91;3574950;40;20052;-64
2023/06/23 00:40:04;;;;;;;11.70;10.48;;;;;;;16.73;97.02;101637.88;3578070;40;20056;-64
2023/06/23 00:42:41;;;;;;;12.35;10.73;;;;;;;16.71;97.29;101646.16;3575161;40;20128;-65
2023/06/23 00:45:07;;;;;;;13.73;10.77;;;;;;;16.70;98.11;101655.25;3578978;40;20056;-65
2023/06/23 00:47:33;;;;;;;12.10;10.70;;;;;;;16.59;97.57;101646.19;3578547;40;20063;-65
2023/06/23 00:49:59;;;;;;;12.32;10.73;;;;;;;16.05;97.21;101548.88;3578752;40;20083;-65
2023/06/23 00:52:24;;;;;;;12.85;11.32;;;;;;;16.63;98.13;101658.56;3575706;40;20068;-65
2023/06/23 00:54:51;;;;;;;13.40;11.07;;;;;;;16.63;97.74;101666.69;3578175;40;20067;-64
2023/06/23 00:57:16;;;;;;;16.23;12.23;;;;;;;16.61;97.79;101666.78;3578488;40;20495;-65
2023/06/23 00:59:42;;;;;;;17.05;12.27;;;;;;;16.61;98.17;101680.38;3578035;40;20473;-64
2023/06/23 01:02:08;;;;;;;13.95;12.45;;;;;;;16.49;98.92;101667.69;3580598;40;20052;-63
2023/06/23 01:04:34;;;;;;;14.52;13.02;;;;;;;16.60;98.22;101691.34;3580848;39;20496;-64
2023/06/23 01:07:22;;;;;;;15.88;12.65;;;;;;;16.61;98.80;101693.06;3574835;40;20062;-63
2023/06/23 01:10:05;;;;;;;15.32;13.82;;;;;;;16.21;98.51;101630.88;3572918;40;20542;-65
2023/06/23 01:12:43;;;;;;;;;;;;;;;16.57;99.38;101697.00;3574740;40;20092;-64
2023/06/23 01:15:26;;;;;;;20.52;15.50;;;;;;;16.59;99.49;101705.91;3576868;40;19939;-64
2023/06/23 01:18:04;;;;;;;19.35;15.15;;;;;;;16.58;98.96;101694.16;3578148;40;20043;-64
2023/06/23 01:20:38;;;;;;;21.35;15.98;;;;;;;16.57;99.82;101691.56;3577028;40;20060;-64
2023/06/23 01:24:05;;;;;;;18.15;16.25;;;;;;;16.59;99.47;101695.06;3575336;40;20475;-63
2023/06/23 01:27:04;;;;;;;19.67;17.50;;;;;;;16.58;99.70;101693.31;3563474;40;20067;-64
2023/06/23 01:29:36;;;;;;;21.60;17.55;;;;;;;16.58;99.52;101694.16;3576443;40;20481;-65
2023/06/23 01:32:13;;;;;;;18.58;16.13;;;;;;;16.58;99.32;101699.59;3577081;40;20587;-64
2023/06/23 01:34:45;;;;;;;20.73;17.27;;;;;;;16.59;98.71;101711.34;3581638;39;20097;-65
2023/06/23 01:37:25;;;;;;;18.50;16.40;;;;;;;16.59;99.21;101711.34;3579309;40;20063;-64
2023/06/23 01:39:58;;;;;;;19.60;17.50;;;;;;;16.61;99.17;101709.38;3571606;40;20404;-65
2023/06/23 01:42:32;;;;;;;19.92;17.83;;;;;;;16.60;98.45;101708.50;3572237;40;20052;-64
2023/06/23 01:45:04;;;;;;;24.00;17.60;;;;;;;16.60;99.34;101707.63;3576766;40;20064;-64
2023/06/23 01:47:40;;;;;;;21.10;18.10;;;;;;;16.57;98.65;101708.72;3577858;40;20056;-64
2023/06/23 01:50:16;;;;;;;21.60;18.33;;;;;;;16.58;98.87;101709.59;3580075;40;20406;-64
2023/06/23 01:52:46;;;;;;;20.73;17.55;;;;;;;16.57;98.21;101710.56;3581742;39;20048;-65
2023/06/23 01:55:13;;;;;;;21.85;18.38;;;;;;;16.57;98.96;101726.88;3575216;40;20099;-64
2023/06/23 01:57:42;;;;;;;20.88;17.92;;;;;;;16.56;98.24;101722.44;3574629;40;20055;-65
2023/06/23 02:00:17;;;;;;;20.38;18.17;;;;;;;16.55;97.98;101726.09;3573656;40;20591;-65
2023/06/23 02:02:49;;;;;;;20.70;18.52;;;;;;;16.55;97.88;101731.53;3575865;39;20056;-64
2023/06/23 02:05:20;;;;;;;21.42;17.90;;;;;;;16.29;97.59;101695.41;3578339;40;20063;-65
2023/06/23 02:07:50;;;;;;;20.48;18.35;;;;;;;16.52;97.28;101738.03;3578601;40;20356;-64
2023/06/23 02:10:19;;;;;;;20.25;18.02;;;;;;;16.41;97.83;101722.53;3574742;40;20452;-65
2023/06/23 02:12:49;;;;;;;21.50;18.58;;;;;;;16.50;97.93;101742.72;3571329;40;20368;-64
2023/06/23 02:15:18;;;;;;;22.15;18.85;;;;;;;16.46;97.72;101742.09;3569663;40;20371;-64
2023/06/23 02:17:47;;;;;;;23.35;19.38;;;;;;;16.46;97.18;101750.22;3574457;40;20058;-63
2023/06/23 02:20:16;;;;;;;21.88;19.02;;;;;;;16.45;97.05;101753.03;3575186;40;20048;-63
2023/06/23 02:22:52;;;;;;;20.58;18.15;;;;;;;16.42;97.16;101756.84;3578820;40;20052;-63
2023/06/23 02:25:20;;;;;;;21.92;19.52;;;;;;;16.41;97.12;101763.25;3576497;40;20739;-63
2023/06/23 02:27:47;;;;;;;22.48;18.85;;;;;;;16.41;97.10;101765.09;3578841;40;20055;-63
2023/06/23 02:30:17;;;;;;;21.45;19.23;;;;;;;16.36;97.06;101768.13;3573618;40;20052;-63
2023/06/23 02:32:47;;;;;;;24.23;18.83;;;;;;;16.36;97.11;101780.81;3574637;40;20321;-64
2023/06/23 02:35:14;;;;;;;21.60;19.40;;;;;;;16.32;97.08;101782.91;3576319;40;20052;-64
2023/06/23 02:37:48;;;;;;;22.40;19.85;;;;;;;16.32;97.63;101782.03;3579451;40;20400;-65
2023/06/23 02:40:21;;;;;;;23.58;21.05;;;;;;;16.31;97.68;101789.31;3575191;40;20391;-64
2023/06/23 02:43:12;;;;;;;23.80;20.63;;;;;;;16.32;97.67;101799.19;3575267;40;20064;-64
2023/06/23 02:45:43;;;;;;;23.77;20.30;;;;;;;16.23;97.34;101787.13;3575534;40;20059;-64
2023/06/23 02:48:19;;;;;;;24.13;19.88;;;;;;;16.32;97.18;101799.19;3575104;40;20078;-64
2023/06/23 02:50:49;;;;;;;25.33;21.23;;;;;;;16.31;97.37;101810.16;3582029;40;20205;-64
2023/06/23 02:53:23;;;;;;;24.10;21.00;;;;;;;16.31;96.50;101807.44;3580853;39;20081;-64
2023/06/23 02:56:00;;;;;;;24.08;21.42;;;;;;;16.22;97.35;101793.53;3567041;40;20396;-65
2023/06/23 02:58:30;;;;;;;25.00;22.40;;;;;;;16.20;97.29;101797.31;3577250;40;20064;-64
2023/06/23 03:01:04;;;;;;;26.75;22.10;;;;;;;16.27;97.56;101809.50;3574934;40;20461;-65
2023/06/23 03:03:34;;;;;;;23.83;21.33;;;;;;;16.27;97.07;101809.50;3576122;40;20089;-64
2023/06/23 03:06:00;;;;;;;24.98;20.70;;;;;;;16.28;97.19;101804.94;3575904;40;20679;-65
2023/06/23 03:08:26;;;;;;;27.17;22.00;;;;;;;16.25;97.11;101816.88;3581263;40;20142;-65
2023/06/23 03:10:52;;;;;;;29.48;23.10;;;;;;;16.23;97.66;101811.53;3574692;40;20099;-65
2023/06/23 03:13:18;;;;;;;28.05;22.92;;;;;;;16.21;97.16;101809.94;3578311;39;20400;-65
2023/06/23 03:15:54;;;;;;;25.95;23.20;;;;;;;16.20;97.40;101805.47;3576240;40;20083;-65
2023/06/23 03:18:27;;;;;;;27.58;23.55;;;;;;;16.18;97.45;101810.16;3576225;40;20136;-65
2023/06/23 03:21:02;;;;;;;25.70;22.85;;;;;;;16.18;97.29;101815.56;3576314;40;20515;-64
2023/06/23 03:23:36;;;;;;;27.67;24.77;;;;;;;16.16;97.83;101810.22;3577477;39;20260;-65
2023/06/23 03:26:06;;;;;;;27.13;24.33;;;;;;;16.15;97.53;101816.66;3575933;40;20060;-64
2023/06/23 03:28:37;;;;;;;27.85;24.92;;;;;;;16.13;97.63;101813.16;3576285;40;20053;-64
2023/06/23 03:31:12;;;;;;;27.63;24.83;;;;;;;16.15;98.23;101827.50;3565418;40;20071;-64
2023/06/23 03:33:43;;;;;;;27.55;24.63;;;;;;;16.14;97.73;101824.88;3573992;39;20048;-63
2023/06/23 03:36:20;;;;;;;28.67;24.95;;;;;;;16.13;97.61;101824.00;3573894;40;20416;-64
2023/06/23 03:39:04;;;;;;;28.92;25.08;;;;;;;16.10;97.45;101818.78;3577763;40;20051;-64
2023/06/23 03:41:33;;;;;;;27.60;24.60;;;;;;;16.14;97.23;101830.31;3577581;40;20103;-64
2023/06/23 03:44:13;;;;;;;27.60;24.63;;;;;;;16.14;97.83;101822.16;3575321;40;20126;-64
2023/06/23 03:46:51;;;;;;;27.58;24.30;;;;;;;15.99;97.30;101807.84;3576431;40;20592;-64
2023/06/23 03:49:26;;;;;;;28.23;25.10;;;;;;;16.12;96.85;101816.84;3575192;40;20410;-63
2023/06/23 03:51:57;;;;;;;26.15;23.58;;;;;;;16.13;96.92;101820.44;3577139;40;20048;-63
2023/06/23 03:54:26;;;;;;;27.05;24.15;;;;;;;16.14;97.23;101830.31;3572030;40;20053;-66
2023/06/23 03:56:56;;;;;;;26.75;23.85;;;;;;;16.12;97.21;101824.13;3574837;40;20133;-66
2023/06/23 03:59:27;;;;;;;27.33;24.23;;;;;;;16.14;97.83;101828.47;3579389;40;20065;-66
2023/06/23 04:01:58;;;;;;;27.35;24.45;;;;;;;16.15;97.88;101837.47;3576164;40;20048;-66
2023/06/23 04:04:26;;;;;;;26.40;23.50;;;;;;;16.15;97.45;101842.91;3576574;39;20057;-66
2023/06/23 04:06:54;;;;;;;26.35;23.55;;;;;;;16.16;96.95;101850.94;3577810;40;20579;-66
2023/06/23 04:09:25;;;;;;;25.73;23.15;;;;;;;16.17;97.53;101857.22;3578846;40;21429;-65
2023/06/23 04:11:56;;;;;;;26.58;23.88;;;;;;;16.19;97.48;101849.84;3575922;40;20417;-66
2023/06/23 04:14:26;;;;;;;25.50;22.73;;;;;;;16.22;97.38;101852.34;3576649;39;20082;-66
2023/06/23 04:16:54;;;;;;;27.40;23.17;;;;;;;16.24;97.69;101853.13;3576281;40;20052;-65
2023/06/23 04:19:29;;;;;;;25.80;23.13;;;;;;;16.28;97.41;101862.78;3573175;40;20361;-66
2023/06/23 04:21:58;;;;;;;25.80;21.95;;;;;;;16.31;96.98;101862.56;3578423;40;20056;-62
2023/06/23 04:24:26;;;;;;;24.63;22.05;;;;;;;16.37;96.54;101862.16;3576712;40;20392;-63
2023/06/23 04:26:57;;;;;;;25.73;21.80;;;;;;;16.43;97.28;101863.56;3578709;40;20054;-63
2023/06/23 04:29:26;;;;;;;24.13;21.52;;;;;;;16.48;96.95;101873.09;3576022;40;20068;-63
2023/06/23 04:31:55;;;;;;;23.60;20.05;;;;;;;16.57;96.10;101866.16;3575451;40;20425;-63
2023/06/23 04:34:22;;;;;;;24.45;20.85;;;;;;;16.55;95.14;101867.25;3573922;40;20072;-63
2023/06/23 04:37:01;;;;;;;23.33;20.83;;;;;;;16.39;95.11;101830.31;3577421;40;20052;-63
2023/06/23 04:40:04;;;;;;;24.88;22.17;;;;;;;16.69;94.58;101881.59;3574237;40;20058;-63
2023/06/23 04:42:47;;;;;;;25.15;20.80;;;;;;;16.75;94.99;101888.47;3567344;40;20059;-63
2023/06/23 04:45:19;;;;;;;24.38;21.83;;;;;;;16.81;94.51;101896.19;3573876;40;20387;-63
2023/06/23 04:47:56;;;;;;;22.25;20.00;;;;;;;16.86;94.16;101891.28;3575345;40;20315;-63
2023/06/23 04:50:28;;;;;;;22.67;20.33;;;;;;;16.93;93.95;101887.13;3578774;40;20053;-63
2023/06/23 04:53:05;;;;;;;23.45;20.95;;;;;;;17.00;93.27;101878.53;3578339;39;20067;-63
2023/06/23 04:55:35;;;;;;;24.42;21.35;;;;;;;17.03;94.06;101883.75;3577415;40;20668;-63
2023/06/23 04:58:06;;;;;;;24.42;21.77;;;;;;;17.05;93.89;101881.81;3573810;40;20130;-63
2023/06/23 05:00:35;;;;;;;25.30;22.20;;;;;;;16.85;94.49;101853.38;3573928;40;20064;-63
2023/06/23 05:03:04;;;;;;;25.58;22.83;;;;;;;17.12;94.53;101904.84;3573966;39;20055;-63
2023/06/23 05:05:34;;;;;;;26.90;23.38;;;;;;;17.13;94.99;101895.72;3575895;40;20060;-63
2023/06/23 05:08:04;;;;;;;26.45;22.67;;;;;;;17.24;94.12;101914.81;3579914;40;20556;-63
2023/06/23 05:10:31;;;;;;;25.63;22.45;;;;;;;17.28;93.97;101910.88;3575841;40;20055;-63
2023/06/23 05:13:04;;;;;;;29.52;23.80;;;;;;;17.32;93.87;101912.44;3576111;40;20072;-63
2023/06/23 05:15:29;;;;;;;26.58;23.73;;;;;;;17.36;93.65;101923.94;3572701;40;20057;-63
2023/06/23 05:18:01;;;;;;;25.25;22.55;;;;;;;17.41;94.22;101927.16;3578334;40;20114;-63
2023/06/23 05:20:31;;;;;;;26.40;23.60;;;;;;;17.39;94.28;101919.13;3575212;40;20056;-63
2023/06/23 05:23:02;;;;;;;27.40;23.98;;;;;;;17.44;94.71;101931.53;3567450;40;20075;-63
2023/06/23 05:25:32;;;;;;;27.35;24.23;;;;;;;17.46;95.07;101925.00;3575075;40;20772;-63
2023/06/23 05:28:03;;;;;;;27.52;24.63;;;;;;;17.51;94.60;101928.25;3574823;40;20133;-63
2023/06/23 05:30:33;;;;;;;28.05;24.73;;;;;;;17.16;94.49;101861.03;3573907;40;20332;-63
2023/06/23 05:33:02;;;;;;;29.13;24.70;;;;;;;17.62;94.31;101932.88;3577427;39;20067;-62
2023/06/23 05:35:33;;;;;;;28.98;24.58;;;;;;;17.70;94.63;101944.09;3581255;40;20056;-63
2023/06/23 05:38:03;;;;;;;28.60;24.90;;;;;;;17.81;94.34;101948.75;3573601;40;20585;-63
2023/06/23 05:40:29;;;;;;;30.13;25.42;;;;;;;17.87;93.86;101942.84;3573562;40;20710;-62
2023/06/23 05:42:55;;;;;;;30.00;25.02;;;;;;;17.95;93.69;101947.69;3575421;40;20375;-64
2023/06/23 05:45:21;;;;;;;28.80;24.25;;;;;;;18.04;93.44;101949.72;3577308;40;20060;-65
2023/06/23 05:47:55;;;;;;;27.67;24.83;;;;;;;18.10;93.00;101941.97;3577608;40;20290;-65
2023/06/23 05:50:30;;;;;;;29.25;25.73;;;;;;;18.14;93.49;101948.06;3573778;40;20146;-63
2023/06/23 05:53:20;;;;;;;30.30;25.48;;;;;;;18.21;93.31;101953.91;3576672;40;20419;-63
2023/06/23 05:56:35;;;;;;;28.83;25.65;;;;;;;18.29;93.18;101959.63;3574878;40;20056;-64
2023/06/23 05:59:06;;;;;;;;;;;;;;;18.35;93.04;101955.56;3575845;40;20112;-64
2023/06/23 06:01:40;;;;;;;33.75;26.73;;;;;;;18.45;92.75;101953.88;3576341;40;19939;-64
2023/06/23 06:04:17;;;;;;;31.20;26.35;;;;;;;18.49;92.33;101960.81;3575122;40;20048;-64
2023/06/23 06:06:47;;;;;;;30.88;27.58;;;;;;;18.55;92.78;101968.50;3570163;40;20110;-64
2023/06/23 06:09:18;;;;;;;34.17;27.95;;;;;;;18.64;93.84;101965.06;3572308;40;20088;-64
2023/06/23 06:11:46;;;;;;;33.65;27.65;;;;;;;18.70;93.12;101972.75;3574329;40;20092;-64
2023/06/23 06:14:15;;;;;;;33.05;27.85;;;;;;;18.75;94.00;101973.31;3573037;39;20118;-63
2023/06/23 06:16:43;;;;;;;33.47;27.95;;;;;;;18.85;92.96;101986.22;3576044;40;20064;-64
2023/06/23 06:19:16;;;;;;;31.73;26.98;;;;;;;18.89;92.76;101977.69;3578308;40;20131;-64
2023/06/23 06:21:46;;;;;;;31.77;27.77;;;;;;;18.82;93.44;101942.88;3575921;40;20059;-64
2023/06/23 06:24:16;;;;;;;33.50;26.90;;;;;;;19.15;92.77;101978.31;3577391;40;20062;-64
2023/06/23 06:26:44;;;;;;;31.90;26.15;;;;;;;19.26;91.38;101974.75;3576647;40;20086;-65
2023/06/23 06:29:17;;;;;;;32.28;26.63;;;;;;;19.23;91.11;101945.88;3574345;40;20073;-65
2023/06/23 06:31:47;;;;;;;29.30;25.25;;;;;;;19.31;90.19;101950.69;3575806;40;20069;-66
2023/06/23 06:34:17;;;;;;;32.25;26.02;;;;;;;19.61;89.21;101990.13;3577261;39;20060;-65
2023/06/23 06:36:45;;;;;;;27.15;23.58;;;;;;;19.74;88.92;101995.47;3578310;40;20052;-66
2023/06/23 06:39:13;;;;;;;27.05;24.10;;;;;;;19.83;88.19;101994.72;3574185;40;20067;-65
2023/06/23 06:41:42;;;;;;;28.48;25.20;;;;;;;19.93;88.21;102001.16;3577224;40;20121;-65
2023/06/23 06:44:07;;;;;;;29.98;23.67;;;;;;;20.03;87.34;102002.13;3577201;40;20482;-65
2023/06/23 06:46:34;;;;;;;26.48;23.45;;;;;;;20.14;85.93;102004.84;3575732;40;20220;-65
2023/06/23 06:49:01;;;;;;;25.55;22.15;;;;;;;20.26;84.42;102007.50;3573986;40;20388;-65
2023/06/23 06:51:29;;;;;;;25.63;22.88;;;;;;;20.33;84.10;102014.19;3576710;40;20060;-65
2023/06/23 06:53:55;;;;;;;25.63;22.05;;;;;;;20.46;84.57;102020.38;3575606;40;20096;-66
2023/06/23 06:56:21;;;;;;;25.60;22.63;;;;;;;20.53;83.81;102020.75;3572291;40;20105;-65
2023/06/23 06:58:48;;;;;;;23.27;20.67;;;;;;;20.62;82.34;102026.28;3576531;40;20064;-65
2023/06/23 07:01:16;;;;;;;24.38;21.60;;;;;;;20.34;82.35;101966.78;3574808;40;20060;-65
2023/06/23 07:03:45;;;;;;;24.88;22.15;;;;;;;20.72;80.93;102020.03;3577153;40;20374;-65
2023/06/23 07:06:12;;;;;;;25.60;22.90;;;;;;;20.81;82.49;102008.31;3572025;40;20411;-65
2023/06/23 07:08:40;;;;;;;25.88;21.98;;;;;;;20.98;81.00;102025.97;3575210;40;20054;-65
2023/06/23 07:11:06;;;;;;;24.00;21.42;;;;;;;21.02;79.64;102033.75;3574099;40;20348;-65
2023/06/23 07:13:31;;;;;;;25.75;22.92;;;;;;;21.10;79.60;102033.97;3574752;40;20060;-65
2023/06/23 07:15:57;;;;;;;25.13;21.75;;;;;;;21.15;79.59;102038.16;3574402;40;20058;-65
2023/06/23 07:18:24;;;;;;;24.88;22.17;;;;;;;21.22;79.24;102044.84;3575583;40;20052;-65
2023/06/23 07:20:50;;;;;;;25.73;22.48;;;;;;;21.26;79.23;102040.84;3576527;40;20403;-64
2023/06/23 07:23:16;;;;;;;21.50;19.20;;;;;;;21.31;78.07;102044.91;3573181;40;20057;-65
2023/06/23 07:25:42;;;;;;;19.75;17.70;;;;;;;21.43;78.46;102042.09;3574589;40;20071;-64
2023/06/23 07:28:07;;;;;;;23.90;21.23;;;;;;;21.53;77.61;102043.91;3574161;40;20437;-64
2023/06/23 07:30:33;;;;;;;22.10;19.70;;;;;;;21.73;77.49;102050.31;3575581;40;20319;-64
2023/06/23 07:32:58;;;;;;;19.70;16.30;;;;;;;21.85;74.90;102048.38;3573499;40;20454;-64
2023/06/23 07:35:24;;;;;;;17.92;14.02;;;;;;;21.88;72.85;102037.09;3572564;40;20044;-64
2023/06/23 07:37:50;;;;;;;15.93;13.40;;;;;;;21.23;70.27;101915.31;3577243;40;20112;-64
2023/06/23 07:40:15;;;;;;;16.95;14.48;;;;;;;22.15;71.65;102054.78;3572705;40;20100;-65
2023/06/23 07:42:41;;;;;;;19.88;17.88;;;;;;;22.25;74.04;102061.19;3574291;40;20406;-64
2023/06/23 07:45:07;;;;;;;21.60;17.70;;;;;;;22.41;73.15;102064.22;3569033;40;20150;-64
2023/06/23 07:47:33;;;;;;;16.25;14.63;;;;;;;22.45;71.36;102065.69;3573181;40;20100;-64
2023/06/23 07:49:58;;;;;;;14.52;12.93;;;;;;;22.56;69.59;102058.34;3569478;40;20555;-64
2023/06/23 07:52:24;;;;;;;15.90;13.15;;;;;;;22.73;69.36;102071.31;3573992;40;20044;-64
2023/06/23 07:54:50;;;;;;;14.00;11.93;;;;;;;22.83;67.53;102066.69;3571294;40;20472;-64
2023/06/23 07:57:15;;;;;;;14.13;12.73;;;;;;;22.88;66.74;102058.91;3574855;40;20067;-64
2023/06/23 07:59:41;;;;;;;15.05;12.73;;;;;;;22.83;70.61;102050.25;3574814;40;20159;-65
2023/06/23 08:02:07;;;;;;;18.30;16.40;;;;;;;23.02;69.90;102063.09;3572489;40;20067;-64
2023/06/23 08:04:32;;;;;;;18.67;15.98;;;;;;;23.13;69.28;102056.63;3572361;40;20319;-65
2023/06/23 08:06:58;;;;;;;18.15;14.95;;;;;;;23.32;68.82;102072.19;3575475;40;20705;-65
2023/06/23 08:09:24;;;;;;;14.43;11.77;;;;;;;23.49;65.51;102063.16;3574643;40;20428;-65
2023/06/23 08:11:50;;;;;;;12.55;10.80;;;;;;;23.54;63.91;102054.50;3574198;40;20063;-65
2023/06/23 08:14:15;;;;;;;12.80;10.73;;;;;;;23.71;64.23;102061.09;3574626;40;20426;-65
2023/06/23 08:16:41;;;;;;;13.32;11.70;;;;;;;23.79;63.51;102064.84;3572423;40;20072;-65
2023/06/23 08:19:07;;;;;;;13.02;10.13;;;;;;;23.70;63.08;102043.75;3574371;40;20115;-65
2023/06/23 08:21:35;;;;;;;14.90;11.60;;;;;;;23.86;63.37;102071.44;3571175;40;20118;-64
2023/06/23 08:24:01;;;;;;;13.20;11.77;;;;;;;23.97;62.74;102070.38;3576513;40;20101;-64
2023/06/23 08:26:27;;;;;;;12.15;10.52;;;;;;;24.10;63.07;102086.50;3579258;40;20370;-64
2023/06/23 08:28:53;;;;;;;13.10;10.90;;;;;;;24.26;63.78;102069.34;3571308;40;20067;-64
2023/06/23 08:31:18;;;;;;;11.50;10.30;;;;;;;24.38;63.09;102075.50;3576364;40;20067;-64
2023/06/23 08:33:44;;;;;;;11.50;10.30;;;;;;;24.52;60.75;102078.59;3572209;40;20064;-65
2023/06/23 08:36:10;;;;;;;11.00;9.25;;;;;;;24.65;59.39;102075.47;3574551;40;20380;-65
2023/06/23 08:38:35;;;;;;;9.20;8.30;;;;;;;24.72;59.20;102071.06;3573380;40;20100;-64
2023/06/23 08:41:02;;;;;;;10.90;8.93;;;;;;;24.89;59.48;102079.47;3575340;40;20123;-64
2023/06/23 08:43:27;;;;;;;9.45;7.70;;;;;;;25.07;57.25;102087.72;3575807;40;20412;-65
2023/06/23 08:45:59;;;;;;;10.57;8.65;;;;;;;25.22;56.33;102087.00;3572212;40;20152;-65
2023/06/23 08:48:28;;;;;;;8.18;7.38;;;;;;;25.26;54.79;102089.44;3573890;40;20455;-64
2023/06/23 08:50:59;;;;;;;8.60;7.32;;;;;;;25.37;56.72;102092.81;3574155;40;20095;-65
2023/06/23 08:53:26;;;;;;;8.27;7.00;;;;;;;25.56;55.74;102102.72;3573628;39;20096;-65
2023/06/23 08:55:54;;;;;;;10.40;7.90;;;;;;;25.47;54.12;102089.94;3574417;40;20382;-65
2023/06/23 08:58:22;;;;;;;7.95;7.20;;;;;;;25.65;55.25;102121.03;3575839;40;20056;-65
2023/06/23 09:00:51;;;;;;;10.68;7.85;;;;;;;25.69;54.45;102108.66;3574195;40;20578;-64
2023/06/23 09:03:22;;;;;;;8.18;6.95;;;;;;;25.74;54.95;102107.31;3571592;40;20058;-64
2023/06/23 09:05:48;;;;;;;8.65;6.68;;;;;;;25.79;54.91;102113.22;3571155;39;20246;-62
2023/06/23 09:08:15;;;;;;;7.70;7.00;;;;;;;25.82;51.61;102107.41;3572747;40;21310;-62
2023/06/23 09:10:41;;;;;;;8.50;6.93;;;;;;;25.75;52.68;102115.41;3574188;40;20060;-63
2023/06/23 09:13:24;;;;;;;7.30;5.93;;;;;;;25.82;52.55;102115.66;3578260;39;20063;-62
2023/06/23 09:15:51;;;;;;;7.63;6.70;;;;;;;25.98;51.96;102121.25;3573457;40;20056;-62
2023/06/23 09:18:18;;;;;;;7.47;6.30;;;;;;;26.02;54.63;102122.66;3574134;40;20130;-63
2023/06/23 09:20:47;;;;;;;5.75;5.25;;;;;;;26.06;51.12;102124.03;3571863;40;20745;-63
2023/06/23 09:23:20;;;;;;;5.55;5.00;;;;;;;26.20;50.54;102116.16;3568757;40;20809;-64
2023/06/23 09:25:53;;;;;;;6.07;5.47;;;;;;;26.25;49.72;102105.50;3568877;40;20403;-64
2023/06/23 09:28:29;;;;;;;6.03;5.40;;;;;;;26.43;52.06;102130.22;3573715;40;20324;-63
2023/06/23 09:31:16;;;;;;;5.95;5.35;;;;;;;26.56;49.40;102131.50;3573712;40;20444;-65
2023/06/23 09:33:52;;;;;;;5.72;5.22;;;;;;;26.46;49.68;102133.50;3570147;40;20616;-63
2023/06/23 09:36:18;;;;;;;6.60;5.80;;;;;;;26.46;49.43;102111.44;3575620;40;20140;-65
2023/06/23 09:38:45;;;;;;;7.72;5.47;;;;;;;26.91;48.07;102135.03;3573009;40;20141;-65
2023/06/23 09:41:17;;;;;;;6.00;5.50;;;;;;;27.07;47.90;102140.56;3571966;40;20059;-65
2023/06/23 09:43:50;;;;;;;6.13;5.40;;;;;;;27.09;50.45;102145.91;3574080;40;20067;-64
2023/06/23 09:46:19;;;;;;;6.13;5.60;;;;;;;26.97;49.11;102141.75;3578896;40;20133;-64
2023/06/23 09:48:50;;;;;;;7.68;5.28;;;;;;;26.91;48.78;102146.06;3573604;40;21283;-64
2023/06/23 09:51:20;;;;;;;6.00;5.32;;;;;;;26.88;49.12;102140.03;3574750;40;20138;-64
2023/06/23 09:53:48;;;;;;;9.80;5.13;;;;;;;26.91;48.44;102128.63;3573251;39;20135;-66
2023/06/23 09:56:19;;;;;;;5.00;4.50;;;;;;;27.25;48.02;102143.19;3573446;40;20056;-65
2023/06/23 09:58:48;;;;;;;5.55;5.00;;;;;;;27.47;47.52;102135.25;3571819;40;20065;-65
2023/06/23 10:01:19;;;;;;;5.40;4.90;;;;;;;27.61;46.88;102142.81;3576150;40;20433;-65
2023/06/23 10:03:48;;;;;;;5.55;4.85;;;;;;;27.71;46.04;102142.59;3574653;40;20063;-66
2023/06/23 10:06:37;;;;;;;6.05;5.13;;;;;;;27.52;45.90;102136.41;3560824;40;20298;-66
2023/06/23 10:09:10;;;;;;;6.18;5.20;;;;;;;27.59;45.85;102127.44;3567685;40;20351;-66
2023/06/23 10:11:39;;;;;;;6.28;5.45;;;;;;;27.61;45.37;102136.41;3571117;40;20044;-67
2023/06/23 10:14:11;;;;;;;5.97;5.18;;;;;;;27.63;46.20;102137.13;3569368;40;20055;-67
2023/06/23 10:16:41;;;;;;;6.43;5.60;;;;;;;27.61;46.67;102109.66;3570489;40;20064;-67
2023/06/23 10:19:07;;;;;;;6.30;5.70;;;;;;;27.25;45.11;102020.84;3573165;40;20061;-68
2023/06/23 10:21:35;;;;;;;5.43;4.50;;;;;;;28.04;44.46;102131.50;3573436;40;20094;-68
2023/06/23 10:24:09;;;;;;;6.18;5.57;;;;;;;28.03;46.55;102136.16;3572223;40;20064;-68
2023/06/23 10:26:37;;;;;;;6.00;5.40;;;;;;;28.10;44.87;102141.84;3573107;40;20185;-67
2023/06/23 10:29:13;;;;;;;8.10;6.22;;;;;;;28.28;46.98;102139.69;3572646;40;20082;-67
2023/06/23 10:31:41;;;;;;;8.02;5.70;;;;;;;28.45;44.66;102141.38;3570071;40;20349;-68
2023/06/23 10:34:15;;;;;;;6.15;5.28;;;;;;;28.00;44.10;102082.13;3571565;40;20060;-67
2023/06/23 10:36:48;;;;;;;5.60;4.75;;;;;;;27.99;45.46;102110.78;3572178;40;20052;-68
2023/06/23 10:39:16;;;;;;;6.38;5.68;;;;;;;28.09;44.40;102140.13;3564165;40;20056;-67
2023/06/23 10:41:47;;;;;;;5.72;4.30;;;;;;;28.19;43.48;102143.53;3573398;40;20118;-68
2023/06/23 10:44:15;;;;;;;5.25;4.07;;;;;;;28.19;43.64;102146.28;3572530;40;20052;-68
2023/06/23 10:46:41;;;;;;;5.60;4.03;;;;;;;27.86;44.09;102134.50;3568026;40;20346;-68
2023/06/23 10:49:08;;;;;;;6.18;4.82;;;;;;;27.69;45.25;102151.09;3575036;40;20052;-68
2023/06/23 10:51:36;;;;;;;5.65;4.63;;;;;;;27.89;45.66;102148.81;3575049;40;20156;-68
2023/06/23 10:54:07;;;;;;;5.40;4.82;;;;;;;27.84;44.16;102109.78;3574097;39;20086;-68
2023/06/23 10:56:35;;;;;;;5.80;5.30;;;;;;;27.91;43.84;102155.06;3575274;40;20133;-68
2023/06/23 11:00:11;;;;;;;4.78;4.38;;;;;;;28.04;43.93;102148.06;3577238;40;20820;-68
2023/06/23 11:02:53;;;;;;;5.22;4.53;;;;;;;28.31;44.81;102144.88;3537654;40;20093;-68
2023/06/23 11:05:18;;;;;;;4.90;3.80;;;;;;;28.43;43.42;102149.00;3574825;40;20090;-68
2023/06/23 11:08:01;;;;;;;5.28;4.50;;;;;;;28.63;42.40;102154.06;3578295;40;20639;-67
2023/06/23 11:11:01;;;;;;;4.63;4.05;;;;;;;28.85;42.62;102150.47;3572156;40;20069;-68
2023/06/23 11:13:56;;;;;;;3.30;3.10;;;;;;;29.20;41.61;102153.72;3572406;40;20060;-66
2023/06/23 11:16:37;;;;;;;4.68;4.15;;;;;;;29.45;40.19;102164.59;3575345;40;20480;-67
2023/06/23 11:19:05;;;;;;;5.07;4.60;;;;;;;29.63;41.65;102156.81;3571678;40;20051;-66
2023/06/23 11:21:39;;;;;;;5.78;4.38;;;;;;;29.63;40.95;102123.56;3573009;40;20052;-67
2023/06/23 11:24:16;;;;;;;5.18;4.10;;;;;;;29.94;39.42;102164.09;3569789;40;20581;-68
2023/06/23 11:26:59;;;;;;;5.38;4.18;;;;;;;30.14;40.03;102167.19;3573822;40;20061;-68
2023/06/23 11:29:25;;;;;;;4.35;3.97;;;;;;;30.36;40.30;102170.94;3572641;40;20058;-67
2023/06/23 11:32:12;;;;;;;4.80;4.30;;;;;;;30.65;39.48;102167.25;3573190;40;20060;-67